sensor_id;sensor_type;location;lat;lon;timestamp;pressure;altitude;pressure_sealevel;temperature;humidity
50394;BME280;36308;46.312;25.288;2023-01-28T00:01:36;95592.03;;;0.54;73.56
50394;BME280;36308;46.312;25.288;2023-01-28T00:04:02;95601.41;;;0.57;73.95
50394;BME280;36308;46.312;25.288;2023-01-28T00:06:27;95588.78;;;0.52;74.16
50394;BME280;36308;46.312;25.288;2023-01-28T00:08:53;95594.47;;;0.56;73.60
50394;BME280;36308;46.312;25.288;2023-01-28T00:11:20;95592.84;;;0.55;74.20
50394;BME280;36308;46.312;25.288;2023-01-28T00:13:52;95584.09;;;0.48;73.84
50394;BME280;36308;46.312;25.288;2023-01-28T00:16:18;95596.09;;;0.57;73.66
50394;BME280;36308;46.312;25.288;2023-01-28T00:18:44;95581.44;;;0.48;73.89
50394;BME280;36308;46.312;25.288;2023-01-28T00:21:12;95592.66;;;0.56;74.16
50394;BME280;36308;46.312;25.288;2023-01-28T00:23:39;95596.09;;;0.57;73.60
50394;BME280;36308;46.312;25.288;2023-01-28T00:26:07;95594.47;;;0.56;74.33
50394;BME280;36308;46.312;25.288;2023-01-28T00:28:33;95590.00;;;0.56;74.69
50394;BME280;36308;46.312;25.288;2023-01-28T00:31:05;95582.28;;;0.48;74.53
50394;BME280;36308;46.312;25.288;2023-01-28T00:33:30;95594.88;;;0.53;74.46
50394;BME280;36308;46.312;25.288;2023-01-28T00:36:00;95602.59;;;0.61;74.51
50394;BME280;36308;46.312;25.288;2023-01-28T00:38:27;95607.91;;;0.61;74.51
50394;BME280;36308;46.312;25.288;2023-01-28T00:40:52;95606.66;;;0.64;74.12
50394;BME280;36308;46.312;25.288;2023-01-28T00:43:18;95587.97;;;0.58;74.73
50394;BME280;36308;46.312;25.288;2023-01-28T00:45:43;95605.88;;;0.63;74.51
50394;BME280;36308;46.312;25.288;2023-01-28T00:48:09;95590.00;;;0.63;74.18
50394;BME280;36308;46.312;25.288;2023-01-28T00:50:34;95596.09;;;0.64;74.39
50394;BME280;36308;46.312;25.288;2023-01-28T00:53:00;95589.19;;;0.63;74.42
50394;BME280;36308;46.312;25.288;2023-01-28T00:55:25;95606.25;;;0.73;73.88
50394;BME280;36308;46.312;25.288;2023-01-28T00:57:52;95604.63;;;0.72;73.72
50394;BME280;36308;46.312;25.288;2023-01-28T01:00:18;95600.56;;;0.70;74.47
50394;BME280;36308;46.312;25.288;2023-01-28T01:02:51;95605.03;;;0.69;74.20
50394;BME280;36308;46.312;25.288;2023-01-28T01:05:17;95608.50;;;0.70;73.85
50394;BME280;36308;46.312;25.288;2023-01-28T01:07:43;95594.88;;;0.59;73.74
50394;BME280;36308;46.312;25.288;2023-01-28T01:10:12;95608.69;;;0.68;74.13
50394;BME280;36308;46.312;25.288;2023-01-28T01:12:38;95603.81;;;0.65;74.22
50394;BME280;36308;46.312;25.288;2023-01-28T01:15:05;95607.09;;;0.67;73.72
50394;BME280;36308;46.312;25.288;2023-01-28T01:17:38;95592.25;;;0.53;73.66
50394;BME280;36308;46.312;25.288;2023-01-28T01:20:05;95608.31;;;0.65;73.78
50394;BME280;36308;46.312;25.288;2023-01-28T01:22:33;95607.47;;;0.64;74.03
50394;BME280;36308;46.312;25.288;2023-01-28T01:25:00;95614.41;;;0.65;73.56
50394;BME280;36308;46.312;25.288;2023-01-28T01:27:25;95614.41;;;0.65;74.38
50394;BME280;36308;46.312;25.288;2023-01-28T01:29:51;95614.00;;;0.62;73.57
50394;BME280;36308;46.312;25.288;2023-01-28T01:32:16;95616.44;;;0.63;73.64
50394;BME280;36308;46.312;25.288;2023-01-28T01:34:43;95605.88;;;0.56;74.16
50394;BME280;36308;46.312;25.288;2023-01-28T01:37:08;95614.81;;;0.62;73.65
50394;BME280;36308;46.312;25.288;2023-01-28T01:39:35;95612.38;;;0.60;73.89
50394;BME280;36308;46.312;25.288;2023-01-28T01:42:01;95627.03;;;0.63;74.24
50394;BME280;36308;46.312;25.288;2023-01-28T01:47:19;95618.28;;;0.63;73.92
50394;BME280;36308;46.312;25.288;2023-01-28T01:49:45;95606.25;;;0.60;73.99
50394;BME280;36308;46.312;25.288;2023-01-28T01:52:14;95620.94;;;0.63;74.03
50394;BME280;36308;46.312;25.288;2023-01-28T01:54:46;95598.97;;;0.49;74.02
50394;BME280;36308;46.312;25.288;2023-01-28T01:57:16;95608.72;;;0.55;74.01
50394;BME280;36308;46.312;25.288;2023-01-28T01:59:43;95621.75;;;0.63;74.31
50394;BME280;36308;46.312;25.288;2023-01-28T02:02:09;95619.09;;;0.63;73.73
50394;BME280;36308;46.312;25.288;2023-01-28T02:04:42;95623.34;;;0.64;74.15
50394;BME280;36308;46.312;25.288;2023-01-28T02:07:11;95611.16;;;0.56;73.69
50394;BME280;36308;46.312;25.288;2023-01-28T02:09:37;95621.75;;;0.63;73.80
50394;BME280;36308;46.312;25.288;2023-01-28T02:12:10;95609.94;;;0.52;73.83
50394;BME280;36308;46.312;25.288;2023-01-28T02:14:46;95627.03;;;0.63;74.54
50394;BME280;36308;46.312;25.288;2023-01-28T02:17:13;95619.50;;;0.60;74.36
50394;BME280;36308;46.312;25.288;2023-01-28T02:19:43;95625.00;;;0.65;74.64
50394;BME280;36308;46.312;25.288;2023-01-28T02:31:39;95634.53;;;0.66;74.42
50394;BME280;36308;46.312;25.288;2023-01-28T02:34:37;95626.59;;;0.66;74.51
50394;BME280;36308;46.312;25.288;2023-01-28T02:37:20;95621.75;;;0.63;73.67
50394;BME280;36308;46.312;25.288;2023-01-28T02:39:50;95628.63;;;0.64;74.04
50394;BME280;36308;46.312;25.288;2023-01-28T02:42:27;95631.91;;;0.66;74.31
50394;BME280;36308;46.312;25.288;2023-01-28T02:44:54;95631.91;;;0.66;74.34
50394;BME280;36308;46.312;25.288;2023-01-28T02:47:19;95629.25;;;0.66;74.02
50394;BME280;36308;46.312;25.288;2023-01-28T02:50:08;95625.81;;;0.59;73.70
50394;BME280;36308;46.312;25.288;2023-01-28T03:03:42;95633.75;;;0.59;74.14
50394;BME280;36308;46.312;25.288;2023-01-28T03:06:11;95653.06;;;0.66;73.69
50394;BME280;36308;46.312;25.288;2023-01-28T03:08:43;95645.97;;;0.67;74.31
50394;BME280;36308;46.312;25.288;2023-01-28T03:11:29;95644.13;;;0.67;73.56
50394;BME280;36308;46.312;25.288;2023-01-28T03:14:16;95633.75;;;0.59;74.27
50394;BME280;36308;46.312;25.288;2023-01-28T03:17:03;95648.81;;;0.65;73.66
50394;BME280;36308;46.312;25.288;2023-01-28T03:19:48;95644.50;;;0.64;73.87
50394;BME280;36308;46.312;25.288;2023-01-28T03:22:36;95631.50;;;0.56;74.04
50394;BME280;36308;46.312;25.288;2023-01-28T03:25:26;95634.16;;;0.63;73.97
50394;BME280;36308;46.312;25.288;2023-01-28T03:28:15;95640.25;;;0.63;73.80
50394;BME280;36308;46.312;25.288;2023-01-28T03:31:14;95647.16;;;0.64;73.52
50394;BME280;36308;46.312;25.288;2023-01-28T03:34:01;95646.16;;;0.65;73.64
50394;BME280;36308;46.312;25.288;2023-01-28T03:36:46;95646.34;;;0.64;73.73
50394;BME280;36308;46.312;25.288;2023-01-28T03:39:17;95634.75;;;0.58;74.38
50394;BME280;36308;46.312;25.288;2023-01-28T03:44:29;95639.22;;;0.64;73.87
50394;BME280;36308;46.312;25.288;2023-01-28T03:47:13;95627.25;;;0.55;74.13
50394;BME280;36308;46.312;25.288;2023-01-28T03:49:40;95651.44;;;0.65;74.47
50394;BME280;36308;46.312;25.288;2023-01-28T03:52:09;95636.41;;;0.59;74.23
50394;BME280;36308;46.312;25.288;2023-01-28T03:54:34;95642.91;;;0.63;74.24
50394;BME280;36308;46.312;25.288;2023-01-28T03:57:00;95624.38;;;0.50;73.82
50394;BME280;36308;46.312;25.288;2023-01-28T03:59:25;95637.22;;;0.53;73.86
50394;BME280;36308;46.312;25.288;2023-01-28T04:01:54;95664.06;;;0.63;73.59
50394;BME280;36308;46.312;25.288;2023-01-28T04:04:20;95660.38;;;0.64;74.27
50394;BME280;36308;46.312;25.288;2023-01-28T04:06:53;95645.75;;;0.55;74.30
50394;BME280;36308;46.312;25.288;2023-01-28T04:09:20;95652.25;;;0.59;73.90
50394;BME280;36308;46.312;25.288;2023-01-28T04:11:49;95645.75;;;0.55;73.98
50394;BME280;36308;46.312;25.288;2023-01-28T04:14:16;95666.91;;;0.62;73.89
50394;BME280;36308;46.312;25.288;2023-01-28T04:16:43;95666.72;;;0.63;74.33
50394;BME280;36308;46.312;25.288;2023-01-28T04:19:10;95657.56;;;0.59;74.38
50394;BME280;36308;46.312;25.288;2023-01-28T04:21:37;95657.56;;;0.59;73.85
50394;BME280;36308;46.312;25.288;2023-01-28T04:24:03;95673.84;;;0.63;74.31
50394;BME280;36308;46.312;25.288;2023-01-28T04:26:28;95668.94;;;0.59;74.59
50394;BME280;36308;46.312;25.288;2023-01-28T04:28:54;95679.94;;;0.63;74.04
50394;BME280;36308;46.312;25.288;2023-01-28T04:31:19;95682.38;;;0.65;74.03
50394;BME280;36308;46.312;25.288;2023-01-28T04:33:45;95677.69;;;0.60;74.42
50394;BME280;36308;46.312;25.288;2023-01-28T04:36:13;95678.28;;;0.62;73.75
50394;BME280;36308;46.312;25.288;2023-01-28T04:38:39;95665.28;;;0.54;74.03
50394;BME280;36308;46.312;25.288;2023-01-28T04:41:04;95692.13;;;0.64;74.46
50394;BME280;36308;46.312;25.288;2023-01-28T04:43:30;95683.41;;;0.57;73.81
50394;BME280;36308;46.312;25.288;2023-01-28T04:45:55;95693.97;;;0.64;74.33
50394;BME280;36308;46.312;25.288;2023-01-28T04:48:23;95703.56;;;0.65;74.14
50394;BME280;36308;46.312;25.288;2023-01-28T04:50:49;95700.50;;;0.61;74.46
50394;BME280;36308;46.312;25.288;2023-01-28T04:53:17;95713.31;;;0.64;74.32
50394;BME280;36308;46.312;25.288;2023-01-28T04:55:43;95719.44;;;0.65;74.30
50394;BME280;36308;46.312;25.288;2023-01-28T04:58:09;95719.00;;;0.61;74.02
50394;BME280;36308;46.312;25.288;2023-01-28T05:00:37;95720.25;;;0.65;74.20
50394;BME280;36308;46.312;25.288;2023-01-28T05:03:03;95719.63;;;0.63;74.29
50394;BME280;36308;46.312;25.288;2023-01-28T05:05:31;95709.66;;;0.58;74.35
50394;BME280;36308;46.312;25.288;2023-01-28T05:07:57;95726.34;;;0.66;73.93
50394;BME280;36308;46.312;25.288;2023-01-28T05:10:24;95721.84;;;0.66;74.05
50394;BME280;36308;46.312;25.288;2023-01-28T05:12:50;95721.84;;;0.66;74.60
50394;BME280;36308;46.312;25.288;2023-01-28T05:15:16;95720.03;;;0.67;74.47
50394;BME280;36308;46.312;25.288;2023-01-28T05:17:43;95719.81;;;0.68;73.85
50394;BME280;36308;46.312;25.288;2023-01-28T05:20:10;95717.59;;;0.65;73.85
50394;BME280;36308;46.312;25.288;2023-01-28T05:22:36;95721.84;;;0.66;74.61
50394;BME280;36308;46.312;25.288;2023-01-28T05:25:04;95712.06;;;0.60;73.62
50394;BME280;36308;46.312;25.288;2023-01-28T05:27:31;95716.56;;;0.66;74.10
50394;BME280;36308;46.312;25.288;2023-01-28T05:29:57;95722.69;;;0.67;74.21
50394;BME280;36308;46.312;25.288;2023-01-28T05:32:23;95712.50;;;0.57;74.07
50394;BME280;36308;46.312;25.288;2023-01-28T05:34:48;95701.91;;;0.57;73.94
50394;BME280;36308;46.312;25.288;2023-01-28T05:37:14;95724.91;;;0.63;74.44
50394;BME280;36308;46.312;25.288;2023-01-28T05:39:39;95731.81;;;0.64;74.22
50394;BME280;36308;46.312;25.288;2023-01-28T05:42:05;95740.59;;;0.65;73.94
50394;BME280;36308;46.312;25.288;2023-01-28T05:44:34;95747.69;;;0.64;74.27
50394;BME280;36308;46.312;25.288;2023-01-28T05:47:00;95740.59;;;0.65;74.43
50394;BME280;36308;46.312;25.288;2023-01-28T05:49:26;95760.94;;;0.64;74.10
50394;BME280;36308;46.312;25.288;2023-01-28T05:51:51;95760.72;;;0.66;73.54
50394;BME280;36308;46.312;25.288;2023-01-28T05:54:17;95742.22;;;0.59;73.98
50394;BME280;36308;46.312;25.288;2023-01-28T05:56:43;95767.44;;;0.68;74.42
50394;BME280;36308;46.312;25.288;2023-01-28T05:59:10;95770.31;;;0.67;73.83
50394;BME280;36308;46.312;25.288;2023-01-28T06:01:36;95771.13;;;0.67;73.84
50394;BME280;36308;46.312;25.288;2023-01-28T06:04:02;95783.31;;;0.68;74.34
50394;BME280;36308;46.312;25.288;2023-01-28T06:06:28;95781.50;;;0.69;73.90
50394;BME280;36308;46.312;25.288;2023-01-28T06:08:54;95773.97;;;0.66;74.15
50394;BME280;36308;46.312;25.288;2023-01-28T06:11:19;95784.97;;;0.69;73.99
50394;BME280;36308;46.312;25.288;2023-01-28T06:13:45;95781.69;;;0.67;74.30
50394;BME280;36308;46.312;25.288;2023-01-28T06:16:11;95790.25;;;0.69;74.21
50394;BME280;36308;46.312;25.288;2023-01-28T06:18:36;95783.31;;;0.68;74.06
50394;BME280;36308;46.312;25.288;2023-01-28T06:21:02;95797.16;;;0.70;74.15
50394;BME280;36308;46.312;25.288;2023-01-28T06:23:31;95783.72;;;0.58;73.83
50394;BME280;36308;46.312;25.288;2023-01-28T06:25:57;95785.16;;;0.61;74.08
50394;BME280;36308;46.312;25.288;2023-01-28T06:28:22;95791.47;;;0.67;73.64
50394;BME280;36308;46.312;25.288;2023-01-28T06:30:51;95799.81;;;0.70;73.50
50394;BME280;36308;46.312;25.288;2023-01-28T06:33:20;95799.63;;;0.72;74.26
50394;BME280;36308;46.312;25.288;2023-01-28T06:35:47;95803.69;;;0.74;74.31
50394;BME280;36308;46.312;25.288;2023-01-28T06:38:13;95799.22;;;0.75;73.68
50394;BME280;36308;46.312;25.288;2023-01-28T06:40:38;95789.63;;;0.67;73.73
50394;BME280;36308;46.312;25.288;2023-01-28T06:43:10;95802.06;;;0.73;74.51
50394;BME280;36308;46.312;25.288;2023-01-28T06:45:36;95805.13;;;0.77;74.44
50394;BME280;36308;46.312;25.288;2023-01-28T06:48:01;95809.81;;;0.82;74.50
50394;BME280;36308;46.312;25.288;2023-01-28T06:50:27;95805.34;;;0.82;73.87
50394;BME280;36308;46.312;25.288;2023-01-28T06:52:52;95798.38;;;0.74;73.98
50394;BME280;36308;46.312;25.288;2023-01-28T06:55:18;95795.97;;;0.73;74.14
50394;BME280;36308;46.312;25.288;2023-01-28T06:57:43;95823.66;;;0.84;73.84
50394;BME280;36308;46.312;25.288;2023-01-28T07:00:12;95816.09;;;0.80;73.94
50394;BME280;36308;46.312;25.288;2023-01-28T07:02:42;95819.97;;;0.85;73.85
50394;BME280;36308;46.312;25.288;2023-01-28T07:05:08;95817.16;;;0.86;73.87
50394;BME280;36308;46.312;25.288;2023-01-28T07:07:34;95826.91;;;0.86;74.26
50394;BME280;36308;46.312;25.288;2023-01-28T07:09:59;95828.16;;;0.90;73.74
50394;BME280;36308;46.312;25.288;2023-01-28T07:12:25;95826.50;;;0.89;73.46
50394;BME280;36308;46.312;25.288;2023-01-28T07:14:50;95833.84;;;0.93;73.38
50394;BME280;36308;46.312;25.288;2023-01-28T07:17:18;95831.41;;;0.92;74.16
50394;BME280;36308;46.312;25.288;2023-01-28T07:19:47;95829.38;;;0.94;73.99
50394;BME280;36308;46.312;25.288;2023-01-28T07:22:16;95833.25;;;0.98;73.18
50394;BME280;36308;46.312;25.288;2023-01-28T07:24:41;95840.34;;;0.97;73.80
50394;BME280;36308;46.312;25.288;2023-01-28T07:27:07;95839.56;;;0.97;73.38
50394;BME280;36308;46.312;25.288;2023-01-28T07:29:32;95844.03;;;1.03;73.79
50394;BME280;36308;46.312;25.288;2023-01-28T07:31:58;95839.16;;;1.00;73.37
50394;BME280;36308;46.312;25.288;2023-01-28T07:34:27;95843.66;;;1.06;73.83
50394;BME280;36308;46.312;25.288;2023-01-28T07:36:52;95838.34;;;1.06;73.88
50394;BME280;36308;46.312;25.288;2023-01-28T07:39:19;95843.22;;;1.09;72.98
50394;BME280;36308;46.312;25.288;2023-01-28T07:41:47;95845.50;;;1.12;73.15
50394;BME280;36308;46.312;25.288;2023-01-28T07:44:13;95829.78;;;1.04;73.62
50394;BME280;36308;46.312;25.288;2023-01-28T07:46:41;95833.66;;;1.08;72.79
50394;BME280;36308;46.312;25.288;2023-01-28T07:49:06;95844.88;;;1.17;73.62
50394;BME280;36308;46.312;25.288;2023-01-28T07:51:32;95844.88;;;1.10;73.10
50394;BME280;36308;46.312;25.288;2023-01-28T07:53:57;95844.44;;;1.13;72.74
50394;BME280;36308;46.312;25.288;2023-01-28T07:56:23;95852.00;;;1.16;72.68
50394;BME280;36308;46.312;25.288;2023-01-28T07:58:49;95845.06;;;1.15;72.29
50394;BME280;36308;46.312;25.288;2023-01-28T08:01:14;95844.88;;;1.10;72.95
50394;BME280;36308;46.312;25.288;2023-01-28T08:03:43;95854.25;;;1.19;73.31
50394;BME280;36308;46.312;25.288;2023-01-28T08:06:12;95840.81;;;1.14;73.40
50394;BME280;36308;46.312;25.288;2023-01-28T08:08:37;95842.41;;;1.15;73.04
50394;BME280;36308;46.312;25.288;2023-01-28T08:11:09;95870.13;;;1.26;72.86
50394;BME280;36308;46.312;25.288;2023-01-28T08:13:36;95864.03;;;1.26;73.08
50394;BME280;36308;46.312;25.288;2023-01-28T08:16:01;95871.75;;;1.34;73.67
50394;BME280;36308;46.312;25.288;2023-01-28T08:18:28;95862.78;;;1.35;73.29
50394;BME280;36308;46.312;25.288;2023-01-28T08:20:54;95862.41;;;1.38;73.09
50394;BME280;36308;46.312;25.288;2023-01-28T08:23:20;95854.22;;;1.33;72.60
50394;BME280;36308;46.312;25.288;2023-01-28T08:25:46;95838.34;;;1.19;72.46
50394;BME280;36308;46.312;25.288;2023-01-28T08:28:14;95859.34;;;1.28;72.46
50394;BME280;36308;46.312;25.288;2023-01-28T08:30:40;95874.22;;;1.29;72.12
50394;BME280;36308;46.312;25.288;2023-01-28T08:33:08;95870.97;;;1.27;72.44
50394;BME280;36308;46.312;25.288;2023-01-28T08:35:34;95846.91;;;1.15;72.25
50394;BME280;36308;46.312;25.288;2023-01-28T08:38:01;95869.31;;;1.26;72.30
50394;BME280;36308;46.312;25.288;2023-01-28T08:40:27;95869.94;;;1.28;72.44
50394;BME280;36308;46.312;25.288;2023-01-28T08:42:53;95864.63;;;1.28;72.97
50394;BME280;36308;46.312;25.288;2023-01-28T08:45:20;95855.88;;;1.20;72.40
50394;BME280;36308;46.312;25.288;2023-01-28T08:48:11;95863.22;;;1.25;72.76
50394;BME280;36308;46.312;25.288;2023-01-28T08:50:39;95858.34;;;1.29;73.08
50394;BME280;36308;46.312;25.288;2023-01-28T08:53:08;95864.25;;;1.31;72.65
50394;BME280;36308;46.312;25.288;2023-01-28T08:55:34;95871.75;;;1.34;72.75
50394;BME280;36308;46.312;25.288;2023-01-28T08:58:10;95862.78;;;1.35;72.27
50394;BME280;36308;46.312;25.288;2023-01-28T09:00:38;95853.63;;;1.37;72.47
50394;BME280;36308;46.312;25.288;2023-01-28T09:03:04;95862.41;;;1.38;72.57
50394;BME280;36308;46.312;25.288;2023-01-28T09:05:30;95852.81;;;1.37;72.87
50394;BME280;36308;46.312;25.288;2023-01-28T09:08:06;95854.88;;;1.41;72.40
50394;BME280;36308;46.312;25.288;2023-01-28T09:10:32;95859.53;;;1.46;72.93
50394;BME280;36308;46.312;25.288;2023-01-28T09:12:57;95861.16;;;1.47;72.32
50394;BME280;36308;46.312;25.288;2023-01-28T09:15:24;95856.88;;;1.46;72.92
50394;BME280;36308;46.312;25.288;2023-01-28T09:17:49;95853.44;;;1.46;72.40
50394;BME280;36308;46.312;25.288;2023-01-28T09:20:15;95861.75;;;1.49;71.94
50394;BME280;36308;46.312;25.288;2023-01-28T09:22:41;95859.13;;;1.49;72.43
50394;BME280;36308;46.312;25.288;2023-01-28T09:25:06;95847.91;;;1.47;72.23
50394;BME280;36308;46.312;25.288;2023-01-28T09:27:32;95844.44;;;1.47;72.60
50394;BME280;36308;46.312;25.288;2023-01-28T09:29:58;95861.56;;;1.57;71.95
50394;BME280;36308;46.312;25.288;2023-01-28T09:32:23;95845.25;;;1.47;72.19
50394;BME280;36308;46.312;25.288;2023-01-28T09:34:50;95850.34;;;1.55;71.97
50394;BME280;36308;46.312;25.288;2023-01-28T09:37:15;95850.97;;;1.57;72.30
50394;BME280;36308;46.312;25.288;2023-01-28T09:39:42;95864.84;;;1.66;72.60
50394;BME280;36308;46.312;25.288;2023-01-28T09:44:56;95861.34;;;1.66;71.83
50394;BME280;36308;46.312;25.288;2023-01-28T09:47:30;95856.66;;;1.68;72.31
50394;BME280;36308;46.312;25.288;2023-01-28T09:49:59;95863.78;;;1.74;72.53
50394;BME280;36308;46.312;25.288;2023-01-28T09:52:29;95861.13;;;1.74;72.26
50394;BME280;36308;46.312;25.288;2023-01-28T09:57:43;95859.09;;;1.76;72.26
50394;BME280;36308;46.312;25.288;2023-01-28T10:00:18;95861.75;;;1.76;71.88
50394;BME280;36308;46.312;25.288;2023-01-28T10:03:07;95848.31;;;1.71;71.84
50394;BME280;36308;46.312;25.288;2023-01-28T10:08:42;95861.72;;;1.82;71.58
50394;BME280;36308;46.312;25.288;2023-01-28T10:17:03;95857.03;;;1.91;71.90
50394;BME280;36308;46.312;25.288;2023-01-28T10:19:42;95841.34;;;1.83;71.54
50394;BME280;36308;46.312;25.288;2023-01-28T10:22:23;95854.16;;;1.93;72.13
50394;BME280;36308;46.312;25.288;2023-01-28T10:24:54;95860.31;;;1.93;71.66
50394;BME280;36308;46.312;25.288;2023-01-28T10:27:28;95859.47;;;1.99;71.85
50394;BME280;36308;46.312;25.288;2023-01-28T10:29:57;95856.59;;;2.01;72.55
50394;BME280;36308;46.312;25.288;2023-01-28T10:32:42;95848.47;;;1.96;71.69
50394;BME280;36308;46.312;25.288;2023-01-28T10:35:11;95843.16;;;1.96;71.91
50394;BME280;36308;46.312;25.288;2023-01-28T10:37:38;95859.25;;;2.08;72.07
50394;BME280;36308;46.312;25.288;2023-01-28T10:40:04;95843.53;;;2.06;72.22
50394;BME280;36308;46.312;25.288;2023-01-28T10:42:34;95864.72;;;2.13;71.83
50394;BME280;36308;46.312;25.288;2023-01-28T10:45:31;95862.69;;;2.15;71.79
50394;BME280;36308;46.312;25.288;2023-01-28T10:48:02;95860.63;;;2.17;71.83
50394;BME280;36308;46.312;25.288;2023-01-28T10:50:31;95846.78;;;2.08;71.77
50394;BME280;36308;46.312;25.288;2023-01-28T10:52:59;95852.69;;;2.17;71.39
50394;BME280;36308;46.312;25.288;2023-01-28T10:55:47;95849.03;;;2.11;71.97
50394;BME280;36308;46.312;25.288;2023-01-28T10:58:19;95862.47;;;2.23;72.02
50394;BME280;36308;46.312;25.288;2023-01-28T11:00:45;95854.50;;;2.23;71.84
50394;BME280;36308;46.312;25.288;2023-01-28T11:03:20;95866.31;;;2.27;71.43
50394;BME280;36308;46.312;25.288;2023-01-28T11:05:56;95844.09;;;2.21;71.87
50394;BME280;36308;46.312;25.288;2023-01-28T11:08:24;95836.78;;;2.17;71.51
50394;BME280;36308;46.312;25.288;2023-01-28T11:10:50;95854.91;;;2.27;71.80
50394;BME280;36308;46.312;25.288;2023-01-28T11:13:19;95841.06;;;2.18;71.36
50394;BME280;36308;46.312;25.288;2023-01-28T11:40:18;95835.81;;;1.85;74.36
50394;BME280;36308;46.312;25.288;2023-01-28T11:42:49;95840.91;;;1.93;73.69
50394;BME280;36308;46.312;25.288;2023-01-28T11:45:17;95850.47;;;2.07;73.17
50394;BME280;36308;46.312;25.288;2023-01-28T11:48:06;95844.34;;;2.07;73.16
50394;BME280;36308;46.312;25.288;2023-01-28T11:51:02;95845.97;;;2.14;73.23
50394;BME280;36308;46.312;25.288;2023-01-28T11:53:48;95845.16;;;2.14;73.24
50394;BME280;36308;46.312;25.288;2023-01-28T12:15:38;95847.53;;;2.22;72.12
50394;BME280;36308;46.312;25.288;2023-01-28T12:42:29;95862.03;;;2.26;72.59
50394;BME280;36308;46.312;25.288;2023-01-28T12:48:23;95867.56;;;2.25;72.28
50394;BME280;36308;46.312;25.288;2023-01-28T12:56:11;95874.28;;;2.27;72.41
50394;BME280;36308;46.312;25.288;2023-01-28T12:59:03;95882.25;;;2.27;72.22
50394;BME280;36308;46.312;25.288;2023-01-28T13:01:43;95876.72;;;2.29;72.69
50394;BME280;36308;46.312;25.288;2023-01-28T13:15:51;95865.09;;;2.23;72.26
50394;BME280;36308;46.312;25.288;2023-01-28T13:31:00;95886.50;;;2.28;72.06
50394;BME280;36308;46.312;25.288;2023-01-28T13:33:30;95884.88;;;2.27;72.50
50394;BME280;36308;46.312;25.288;2023-01-28T13:35:57;95868.41;;;2.12;72.20
50394;BME280;36308;46.312;25.288;2023-01-28T13:38:26;95875.34;;;2.13;71.78
50394;BME280;36308;46.312;25.288;2023-01-28T13:40:56;95892.91;;;2.14;71.80
50394;BME280;36308;46.312;25.288;2023-01-28T13:46:03;95884.72;;;2.09;72.43
50394;BME280;36308;46.312;25.288;2023-01-28T13:48:45;95889.03;;;2.10;71.92
50394;BME280;36308;46.312;25.288;2023-01-28T13:51:26;95888.63;;;2.06;71.85
50394;BME280;36308;46.312;25.288;2023-01-28T13:56:27;95892.50;;;2.04;71.80
50394;BME280;36308;46.312;25.288;2023-01-28T14:12:50;95900.28;;;1.92;72.04
50394;BME280;36308;46.312;25.288;2023-01-28T14:15:48;95895.16;;;1.90;72.96
50394;BME280;36308;46.312;25.288;2023-01-28T14:20:45;95899.84;;;1.88;73.04
50394;BME280;36308;46.312;25.288;2023-01-28T14:23:20;95885.19;;;1.79;72.30
50394;BME280;36308;46.312;25.288;2023-01-28T14:31:54;95902.31;;;1.83;72.53
50394;BME280;36308;46.312;25.288;2023-01-28T14:34:27;95898.03;;;1.75;73.18
50394;BME280;36308;46.312;25.288;2023-01-28T14:36:56;95895.81;;;1.72;73.10
50394;BME280;36308;46.312;25.288;2023-01-28T14:39:26;95912.94;;;1.83;72.77
50394;BME280;36308;46.312;25.288;2023-01-28T14:41:54;95911.91;;;1.84;72.80
50394;BME280;36308;46.312;25.288;2023-01-28T14:49:58;95907.22;;;1.73;73.47
50394;BME280;36308;46.312;25.288;2023-01-28T15:00:27;95922.09;;;1.74;73.74
50394;BME280;36308;46.312;25.288;2023-01-28T15:02:53;95921.09;;;1.75;73.91
50394;BME280;36308;46.312;25.288;2023-01-28T15:05:21;95924.75;;;1.74;73.20
50394;BME280;36308;46.312;25.288;2023-01-28T15:07:47;95931.09;;;1.73;73.73
50394;BME280;36308;46.312;25.288;2023-01-28T15:12:42;95919.03;;;1.64;73.88
50394;BME280;36308;46.312;25.288;2023-01-28T15:15:17;95927.81;;;1.71;73.26
50394;BME280;36308;46.312;25.288;2023-01-28T15:17:45;95928.84;;;1.63;73.06
50394;BME280;36308;46.312;25.288;2023-01-28T15:20:17;95936.59;;;1.65;73.49
50394;BME280;36308;46.312;25.288;2023-01-28T15:22:43;95929.25;;;1.60;73.79
50394;BME280;36308;46.312;25.288;2023-01-28T15:25:19;95937.81;;;1.62;73.48
50394;BME280;36308;46.312;25.288;2023-01-28T15:27:46;95921.09;;;1.48;73.94
50394;BME280;36308;46.312;25.288;2023-01-28T15:30:25;95949.84;;;1.58;73.85
50394;BME280;36308;46.312;25.288;2023-01-28T15:33:10;95939.03;;;1.53;73.64
50394;BME280;36308;46.312;25.288;2023-01-28T15:35:37;95952.25;;;1.53;73.73
50394;BME280;36308;46.312;25.288;2023-01-28T15:38:02;95935.34;;;1.47;73.90
50394;BME280;36308;46.312;25.288;2023-01-28T15:40:29;95956.13;;;1.57;73.43
50394;BME280;36308;46.312;25.288;2023-01-28T15:42:55;95960.63;;;1.56;73.51
50394;BME280;36308;46.312;25.288;2023-01-28T15:45:24;95955.34;;;1.56;73.51
50394;BME280;36308;46.312;25.288;2023-01-28T15:47:52;95952.88;;;1.48;73.38
50394;BME280;36308;46.312;25.288;2023-01-28T15:50:26;95944.72;;;1.43;74.07
50394;BME280;36308;46.312;25.288;2023-01-28T15:52:52;95946.75;;;1.41;74.12
50394;BME280;36308;46.312;25.288;2023-01-28T15:57:51;95968.97;;;1.53;73.77
50394;BME280;36308;46.312;25.288;2023-01-28T16:00:20;95977.75;;;1.54;73.72
50394;BME280;36308;46.312;25.288;2023-01-28T16:02:51;95979.38;;;1.55;74.10
50394;BME280;36308;46.312;25.288;2023-01-28T16:07:53;95957.34;;;1.41;73.45
50394;BME280;36308;46.312;25.288;2023-01-28T16:10:22;95989.16;;;1.54;73.84
50394;BME280;36308;46.312;25.288;2023-01-28T16:13:13;95982.22;;;1.53;74.30
50394;BME280;36308;46.312;25.288;2023-01-28T16:15:45;95970.19;;;1.44;74.26
50394;BME280;36308;46.312;25.288;2023-01-28T16:18:40;95991.41;;;1.57;74.02
50394;BME280;36308;46.312;25.288;2023-01-28T16:21:10;95994.03;;;1.57;73.82
50394;BME280;36308;46.312;25.288;2023-01-28T16:23:37;95987.94;;;1.57;73.33